createdAt,value
2022-09-07T00:01:00.679Z,20.60
2022-09-07T00:08:02.630Z,20.54
2022-09-07T00:15:08.245Z,20.43
2022-09-07T00:22:09.903Z,20.41
2022-09-07T00:29:11.637Z,20.38
2022-09-07T00:36:13.410Z,20.30
2022-09-07T00:43:17.471Z,20.30
2022-09-07T00:50:26.363Z,20.24
2022-09-07T00:57:28.210Z,20.18
2022-09-07T01:04:30.220Z,20.06
2022-09-07T01:11:33.831Z,20.00
2022-09-07T01:19:07.313Z,19.94
2022-09-07T01:26:27.496Z,19.85
2022-09-07T01:33:43.472Z,19.74
2022-09-07T01:40:59.646Z,19.68
2022-09-07T01:48:04.654Z,19.65
2022-09-07T01:55:13.612Z,19.54
2022-09-07T02:02:17.987Z,19.46
2022-09-07T02:09:30.743Z,19.36
2022-09-07T02:16:33.457Z,19.27
2022-09-07T02:23:47.647Z,19.21
2022-09-07T02:30:49.287Z,19.15
2022-09-07T02:37:50.962Z,19.08
2022-09-07T02:44:52.655Z,19.03
2022-09-07T02:52:06.376Z,18.95
2022-09-07T02:59:14.256Z,18.94
2022-09-07T03:06:28.533Z,18.91
2022-09-07T03:13:30.350Z,18.87
2022-09-07T03:20:31.984Z,18.82
2022-09-07T03:27:33.637Z,18.74
2022-09-07T03:34:36.239Z,18.69
2022-09-07T03:41:37.826Z,18.62
2022-09-07T03:48:39.487Z,18.57
2022-09-07T03:55:41.148Z,18.51
2022-09-07T04:02:42.909Z,18.48
2022-09-07T04:09:45.438Z,18.39
2022-09-07T04:16:48.878Z,18.33
2022-09-07T04:23:51.678Z,18.25
2022-09-07T04:30:54.827Z,18.15
2022-09-07T04:37:56.938Z,18.10
2022-09-07T04:44:58.586Z,18.11
2022-09-07T04:52:00.361Z,18.09
2022-09-07T04:59:02.269Z,18.03
2022-09-07T05:06:04.766Z,18.06
2022-09-07T05:13:06.432Z,18.01
2022-09-07T05:20:08.332Z,18.00
2022-09-07T05:27:10.041Z,18.04
2022-09-07T05:41:33.349Z,18.04
2022-09-07T05:48:35.138Z,18.05
2022-09-07T05:55:36.752Z,17.99
2022-09-07T06:02:39.875Z,18.06
2022-09-07T06:17:03.401Z,18.16
2022-09-07T06:24:05.665Z,18.25
2022-09-07T06:31:11.192Z,18.35
2022-09-07T06:38:12.940Z,18.30
2022-09-07T06:45:14.556Z,18.47
2022-09-07T06:52:16.297Z,18.92
2022-09-07T06:59:18.008Z,19.05
2022-09-07T07:06:19.998Z,19.21
2022-09-07T07:20:22.177Z,19.87
2022-09-07T07:27:23.862Z,20.15
2022-09-07T07:34:25.807Z,20.39
2022-09-07T07:48:51.941Z,21.32
2022-09-07T07:55:53.625Z,22.01
2022-09-07T08:02:55.421Z,22.11
2022-09-07T08:09:56.970Z,22.20
2022-09-07T08:16:58.553Z,22.45
2022-09-07T08:24:00.200Z,23.09
2022-09-07T08:31:10.649Z,23.50
2022-09-07T08:38:12.413Z,23.64
2022-09-07T08:45:16.113Z,23.65
2022-09-07T08:52:26.346Z,24.48
2022-09-07T08:59:31.411Z,25.02
2022-09-07T09:06:48.318Z,25.58
2022-09-07T09:14:03.660Z,25.89
2022-09-07T09:21:07.865Z,26.49
2022-09-07T09:28:12.562Z,26.95
2022-09-07T09:35:26.336Z,27.56
2022-09-07T09:42:27.920Z,28.18
2022-09-07T09:49:34.833Z,28.49
2022-09-07T09:56:41.494Z,28.80
2022-09-07T10:04:00.898Z,29.05
2022-09-07T10:11:09.647Z,28.67
2022-09-07T10:18:56.476Z,29.50
2022-09-07T10:25:58.074Z,29.63
2022-09-07T10:33:04.350Z,30.63
2022-09-07T10:40:30.019Z,30.40
2022-09-07T10:47:50.547Z,28.86
2022-09-07T10:54:56.821Z,28.29
2022-09-07T11:02:16.961Z,27.18
2022-09-07T11:09:43.398Z,26.83
2022-09-07T11:16:52.908Z,26.72
2022-09-07T11:24:11.159Z,27.01
2022-09-07T11:31:35.918Z,27.05
2022-09-07T11:38:44.855Z,27.56
2022-09-07T11:45:53.657Z,27.71
2022-09-07T11:53:19.425Z,28.44
2022-09-07T12:00:27.621Z,27.74
2022-09-07T12:08:04.613Z,27.63
2022-09-07T12:15:25.818Z,27.59
2022-09-07T12:22:27.413Z,27.62
2022-09-07T12:29:29.336Z,27.95
2022-09-07T12:36:30.818Z,28.28
2022-09-07T12:43:42.597Z,28.09
2022-09-07T12:51:06.111Z,28.59
2022-09-07T12:58:17.221Z,28.33
2022-09-07T13:05:30.826Z,28.06
2022-09-07T13:19:55.629Z,27.38
2022-09-07T13:27:05.865Z,27.36
2022-09-07T13:34:31.387Z,27.19
2022-09-07T13:41:37.194Z,27.27
2022-09-07T13:48:42.076Z,27.58
2022-09-07T13:55:43.647Z,27.99
2022-09-07T14:02:45.331Z,29.12
2022-09-07T14:09:49.944Z,29.36
2022-09-07T14:17:04.554Z,29.03
2022-09-07T14:24:22.698Z,28.52
2022-09-07T14:31:24.881Z,28.23
2022-09-07T14:45:52.722Z,27.71
2022-09-07T15:00:21.154Z,27.70
2022-09-07T15:07:29.839Z,27.81
2022-09-07T15:14:31.297Z,27.96
2022-09-07T15:21:33.649Z,28.98
2022-09-07T15:35:57.502Z,28.78
2022-09-07T15:43:02.070Z,29.03
2022-09-07T15:50:07.348Z,28.88
2022-09-07T16:04:30.737Z,28.76
2022-09-07T16:11:35.205Z,28.50
2022-09-07T16:18:37.616Z,28.26
2022-09-07T16:25:39.582Z,28.00
2022-09-07T16:32:44.788Z,27.77
2022-09-07T16:39:46.643Z,27.60
2022-09-07T16:46:48.461Z,27.46
2022-09-07T16:53:51.146Z,27.36
2022-09-07T17:00:52.803Z,27.25
2022-09-07T17:07:54.769Z,27.13
2022-09-07T17:14:56.344Z,27.00
2022-09-07T17:21:59.633Z,26.88
2022-09-07T17:29:01.393Z,26.83
2022-09-07T17:36:05.083Z,26.46
2022-09-07T17:50:28.244Z,25.65
2022-09-07T17:57:31.562Z,25.52
2022-09-07T18:04:35.628Z,25.48
2022-09-07T18:11:46.409Z,25.31
2022-09-07T18:18:49.192Z,25.07
2022-09-07T18:25:57.992Z,25.01
2022-09-07T18:32:59.870Z,25.04
2022-09-07T18:40:01.848Z,24.93
2022-09-07T18:47:03.596Z,24.95
2022-09-07T18:54:05.229Z,24.92
2022-09-07T19:01:08.192Z,24.87
2022-09-07T19:08:09.830Z,24.87
2022-09-07T19:15:11.402Z,24.77
2022-09-07T19:22:13.051Z,24.70
2022-09-07T19:29:17.917Z,24.65
2022-09-07T19:36:19.473Z,24.55
2022-09-07T19:43:21.047Z,24.47
2022-09-07T19:50:22.647Z,24.42
2022-09-07T19:57:24.307Z,24.37
2022-09-07T20:04:25.936Z,24.32
2022-09-07T20:11:28.561Z,24.32
2022-09-07T20:18:30.168Z,24.24
2022-09-07T20:25:31.717Z,24.12
2022-09-07T20:32:33.881Z,24.06
2022-09-07T20:39:39.130Z,23.95
2022-09-07T20:46:41.326Z,23.79
2022-09-07T20:53:43.079Z,23.70
2022-09-07T21:00:50.511Z,23.55
2022-09-07T21:07:54.116Z,23.43
2022-09-07T21:14:55.872Z,23.31
2022-09-07T21:21:57.452Z,23.29
2022-09-07T21:29:03.686Z,23.23
2022-09-07T21:36:05.816Z,23.08
2022-09-07T21:43:07.373Z,23.08
2022-09-07T21:50:08.967Z,23.01
2022-09-07T21:57:10.754Z,22.91
2022-09-07T22:04:12.376Z,22.84
2022-09-07T22:11:16.491Z,22.80
2022-09-07T22:18:18.069Z,22.78
2022-09-07T22:25:19.647Z,22.70
2022-09-07T22:32:21.266Z,22.58
2022-09-07T22:39:22.825Z,22.49
2022-09-07T22:46:26.059Z,22.40
2022-09-07T22:53:29.011Z,22.28
2022-09-07T23:00:30.661Z,22.27
2022-09-07T23:07:32.237Z,22.14
2022-09-07T23:14:33.917Z,22.06
2022-09-07T23:21:35.472Z,21.99
2022-09-07T23:28:37.046Z,21.97
2022-09-07T23:35:38.607Z,21.90
2022-09-07T23:42:40.154Z,21.82
2022-09-07T23:49:41.785Z,21.66
2022-09-07T23:56:43.371Z,21.59
